sensor_id;sensor_type;location;lat;lon;timestamp;temperature;humidity
76104;HTU21D;64831;44.870;37.336;2023-12-20T00:01:40;10.98;79.36
76104;HTU21D;64831;44.870;37.336;2023-12-20T00:04:06;10.96;79.23
76104;HTU21D;64831;44.870;37.336;2023-12-20T00:06:32;10.98;79.41
76104;HTU21D;64831;44.870;37.336;2023-12-20T00:08:58;11.03;79.30
76104;HTU21D;64831;44.870;37.336;2023-12-20T00:11:24;11.04;79.29
76104;HTU21D;64831;44.870;37.336;2023-12-20T00:13:51;11.02;79.52
76104;HTU21D;64831;44.870;37.336;2023-12-20T00:16:17;11.03;79.40
76104;HTU21D;64831;44.870;37.336;2023-12-20T00:18:43;11.01;79.32
76104;HTU21D;64831;44.870;37.336;2023-12-20T00:21:09;11.02;79.18
76104;HTU21D;64831;44.870;37.336;2023-12-20T00:23:35;11.02;79.10
76104;HTU21D;64831;44.870;37.336;2023-12-20T00:26:01;11.00;79.11
76104;HTU21D;64831;44.870;37.336;2023-12-20T00:28:27;11.03;79.11
76104;HTU21D;64831;44.870;37.336;2023-12-20T00:30:53;11.04;79.21
76104;HTU21D;64831;44.870;37.336;2023-12-20T00:33:19;11.02;79.49
76104;HTU21D;64831;44.870;37.336;2023-12-20T00:35:45;11.01;79.60
76104;HTU21D;64831;44.870;37.336;2023-12-20T00:38:11;11.01;80.01
76104;HTU21D;64831;44.870;37.336;2023-12-20T00:40:37;10.99;80.08
76104;HTU21D;64831;44.870;37.336;2023-12-20T00:43:03;10.97;80.07
76104;HTU21D;64831;44.870;37.336;2023-12-20T00:45:29;10.95;80.06
76104;HTU21D;64831;44.870;37.336;2023-12-20T00:47:55;10.97;80.07
76104;HTU21D;64831;44.870;37.336;2023-12-20T00:50:21;10.97;79.99
76104;HTU21D;64831;44.870;37.336;2023-12-20T00:52:48;10.98;79.54
76104;HTU21D;64831;44.870;37.336;2023-12-20T00:55:14;10.99;79.15
76104;HTU21D;64831;44.870;37.336;2023-12-20T00:57:40;11.00;78.99
76104;HTU21D;64831;44.870;37.336;2023-12-20T01:00:06;11.02;79.21
76104;HTU21D;64831;44.870;37.336;2023-12-20T01:02:35;11.05;79.20
76104;HTU21D;64831;44.870;37.336;2023-12-20T01:05:01;11.07;79.20
76104;HTU21D;64831;44.870;37.336;2023-12-20T01:07:27;11.07;79.17
76104;HTU21D;64831;44.870;37.336;2023-12-20T01:09:53;11.09;79.04
76104;HTU21D;64831;44.870;37.336;2023-12-20T01:12:19;11.11;78.96
76104;HTU21D;64831;44.870;37.336;2023-12-20T01:14:46;11.13;78.89
76104;HTU21D;64831;44.870;37.336;2023-12-20T01:17:12;11.13;78.89
76104;HTU21D;64831;44.870;37.336;2023-12-20T01:19:38;11.15;78.89
76104;HTU21D;64831;44.870;37.336;2023-12-20T01:22:04;11.16;78.86
76104;HTU21D;64831;44.870;37.336;2023-12-20T01:24:30;11.16;78.85
76104;HTU21D;64831;44.870;37.336;2023-12-20T01:26:56;11.17;78.75
76104;HTU21D;64831;44.870;37.336;2023-12-20T01:29:22;11.14;78.85
76104;HTU21D;64831;44.870;37.336;2023-12-20T01:31:48;11.10;78.85
76104;HTU21D;64831;44.870;37.336;2023-12-20T01:34:14;11.14;78.82
76104;HTU21D;64831;44.870;37.336;2023-12-20T01:36:40;11.15;78.79
76104;HTU21D;64831;44.870;37.336;2023-12-20T01:39:06;11.13;78.83
76104;HTU21D;64831;44.870;37.336;2023-12-20T01:41:32;11.13;78.96
76104;HTU21D;64831;44.870;37.336;2023-12-20T01:43:58;11.16;78.90
76104;HTU21D;64831;44.870;37.336;2023-12-20T01:46:24;11.15;78.79
76104;HTU21D;64831;44.870;37.336;2023-12-20T01:48:51;11.15;78.92
76104;HTU21D;64831;44.870;37.336;2023-12-20T01:51:17;11.16;78.83
76104;HTU21D;64831;44.870;37.336;2023-12-20T01:53:44;11.15;78.79
76104;HTU21D;64831;44.870;37.336;2023-12-20T01:56:11;11.14;78.82
76104;HTU21D;64831;44.870;37.336;2023-12-20T01:58:44;11.13;78.95
76104;HTU21D;64831;44.870;37.336;2023-12-20T02:01:11;11.11;79.10
76104;HTU21D;64831;44.870;37.336;2023-12-20T02:03:37;11.08;79.07
76104;HTU21D;64831;44.870;37.336;2023-12-20T02:06:04;11.12;79.09
76104;HTU21D;64831;44.870;37.336;2023-12-20T02:08:31;11.13;78.95
76104;HTU21D;64831;44.870;37.336;2023-12-20T02:10:57;11.11;78.98
76104;HTU21D;64831;44.870;37.336;2023-12-20T02:13:23;11.14;78.85
76104;HTU21D;64831;44.870;37.336;2023-12-20T02:15:49;11.11;78.66
76104;HTU21D;64831;44.870;37.336;2023-12-20T02:18:15;11.14;78.63
76104;HTU21D;64831;44.870;37.336;2023-12-20T02:20:42;11.13;78.49
76104;HTU21D;64831;44.870;37.336;2023-12-20T02:23:08;11.14;78.26
76104;HTU21D;64831;44.870;37.336;2023-12-20T02:25:34;11.09;77.72
76104;HTU21D;64831;44.870;37.336;2023-12-20T02:28:01;11.13;77.61
76104;HTU21D;64831;44.870;37.336;2023-12-20T02:30:27;11.15;77.62
76104;HTU21D;64831;44.870;37.336;2023-12-20T02:32:53;11.14;77.73
76104;HTU21D;64831;44.870;37.336;2023-12-20T02:35:19;11.15;77.82
76104;HTU21D;64831;44.870;37.336;2023-12-20T02:37:45;11.13;77.79
76104;HTU21D;64831;44.870;37.336;2023-12-20T02:40:11;11.12;77.52
76104;HTU21D;64831;44.870;37.336;2023-12-20T02:42:37;11.12;77.17
76104;HTU21D;64831;44.870;37.336;2023-12-20T02:45:04;11.12;77.20
76104;HTU21D;64831;44.870;37.336;2023-12-20T02:47:33;11.12;77.19
76104;HTU21D;64831;44.870;37.336;2023-12-20T02:49:58;11.11;77.40
76104;HTU21D;64831;44.870;37.336;2023-12-20T02:52:25;11.15;77.36
76104;HTU21D;64831;44.870;37.336;2023-12-20T02:54:51;11.15;77.15
76104;HTU21D;64831;44.870;37.336;2023-12-20T02:57:16;11.16;76.93
76104;HTU21D;64831;44.870;37.336;2023-12-20T02:59:43;11.11;76.14
76104;HTU21D;64831;44.870;37.336;2023-12-20T03:02:08;11.07;75.92
76104;HTU21D;64831;44.870;37.336;2023-12-20T03:04:34;11.09;75.93
76104;HTU21D;64831;44.870;37.336;2023-12-20T03:07:00;11.09;75.91
76104;HTU21D;64831;44.870;37.336;2023-12-20T03:09:26;11.09;76.12
76104;HTU21D;64831;44.870;37.336;2023-12-20T03:11:52;11.08;76.18
76104;HTU21D;64831;44.870;37.336;2023-12-20T03:14:18;11.08;76.24
76104;HTU21D;64831;44.870;37.336;2023-12-20T03:16:50;11.10;76.38
76104;HTU21D;64831;44.870;37.336;2023-12-20T03:19:17;11.08;76.33
76104;HTU21D;64831;44.870;37.336;2023-12-20T03:21:44;11.11;76.36
76104;HTU21D;64831;44.870;37.336;2023-12-20T03:24:10;11.11;76.31
76104;HTU21D;64831;44.870;37.336;2023-12-20T03:26:36;11.13;76.47
76104;HTU21D;64831;44.870;37.336;2023-12-20T03:29:02;11.12;76.60
76104;HTU21D;64831;44.870;37.336;2023-12-20T03:31:28;11.17;76.64
76104;HTU21D;64831;44.870;37.336;2023-12-20T03:33:54;11.16;77.05
76104;HTU21D;64831;44.870;37.336;2023-12-20T03:36:20;11.16;77.38
76104;HTU21D;64831;44.870;37.336;2023-12-20T03:38:46;11.17;77.50
76104;HTU21D;64831;44.870;37.336;2023-12-20T03:41:13;11.19;77.56
76104;HTU21D;64831;44.870;37.336;2023-12-20T03:43:39;11.17;77.90
76104;HTU21D;64831;44.870;37.336;2023-12-20T03:46:05;11.20;77.75
76104;HTU21D;64831;44.870;37.336;2023-12-20T03:48:31;11.22;77.44
76104;HTU21D;64831;44.870;37.336;2023-12-20T03:50:58;11.22;77.39
76104;HTU21D;64831;44.870;37.336;2023-12-20T03:53:23;11.19;77.40
76104;HTU21D;64831;44.870;37.336;2023-12-20T03:55:49;11.19;77.59
76104;HTU21D;64831;44.870;37.336;2023-12-20T03:58:15;11.16;76.88
76104;HTU21D;64831;44.870;37.336;2023-12-20T04:00:41;11.19;76.72
76104;HTU21D;64831;44.870;37.336;2023-12-20T04:03:07;11.20;76.56
76104;HTU21D;64831;44.870;37.336;2023-12-20T04:05:33;11.18;75.92
76104;HTU21D;64831;44.870;37.336;2023-12-20T04:08:01;11.20;75.63
76104;HTU21D;64831;44.870;37.336;2023-12-20T04:10:27;11.17;75.50
76104;HTU21D;64831;44.870;37.336;2023-12-20T04:12:53;11.19;75.52
76104;HTU21D;64831;44.870;37.336;2023-12-20T04:15:20;11.17;75.43
76104;HTU21D;64831;44.870;37.336;2023-12-20T04:17:46;11.22;75.47
76104;HTU21D;64831;44.870;37.336;2023-12-20T04:20:12;11.24;75.62
76104;HTU21D;64831;44.870;37.336;2023-12-20T04:22:38;11.20;75.79
76104;HTU21D;64831;44.870;37.336;2023-12-20T04:25:04;11.23;75.75
76104;HTU21D;64831;44.870;37.336;2023-12-20T04:27:30;11.25;75.79
76104;HTU21D;64831;44.870;37.336;2023-12-20T04:29:56;11.25;75.92
76104;HTU21D;64831;44.870;37.336;2023-12-20T04:32:23;11.26;76.19
76104;HTU21D;64831;44.870;37.336;2023-12-20T04:34:49;11.27;76.66
76104;HTU21D;64831;44.870;37.336;2023-12-20T04:37:15;11.28;76.88
76104;HTU21D;64831;44.870;37.336;2023-12-20T04:39:41;11.29;76.90
76104;HTU21D;64831;44.870;37.336;2023-12-20T04:42:07;11.33;76.78
76104;HTU21D;64831;44.870;37.336;2023-12-20T04:44:33;11.36;76.80
76104;HTU21D;64831;44.870;37.336;2023-12-20T04:46:59;11.33;76.82
76104;HTU21D;64831;44.870;37.336;2023-12-20T04:49:25;11.36;76.85
76104;HTU21D;64831;44.870;37.336;2023-12-20T04:51:51;11.32;76.92
76104;HTU21D;64831;44.870;37.336;2023-12-20T04:54:17;11.34;76.86
76104;HTU21D;64831;44.870;37.336;2023-12-20T04:56:43;11.36;76.95
76104;HTU21D;64831;44.870;37.336;2023-12-20T04:59:09;11.37;77.11
76104;HTU21D;64831;44.870;37.336;2023-12-20T05:01:35;11.39;76.95
76104;HTU21D;64831;44.870;37.336;2023-12-20T05:04:01;11.40;76.89
76104;HTU21D;64831;44.870;37.336;2023-12-20T05:06:27;11.38;76.76
76104;HTU21D;64831;44.870;37.336;2023-12-20T05:08:53;11.38;76.78
76104;HTU21D;64831;44.870;37.336;2023-12-20T05:11:19;11.36;76.75
76104;HTU21D;64831;44.870;37.336;2023-12-20T05:13:45;11.40;76.76
76104;HTU21D;64831;44.870;37.336;2023-12-20T05:16:11;11.39;76.83
76104;HTU21D;64831;44.870;37.336;2023-12-20T05:18:39;11.40;76.76
76104;HTU21D;64831;44.870;37.336;2023-12-20T05:21:06;11.40;76.79
76104;HTU21D;64831;44.870;37.336;2023-12-20T05:23:32;11.40;76.98
76104;HTU21D;64831;44.870;37.336;2023-12-20T05:25:58;11.41;76.88
76104;HTU21D;64831;44.870;37.336;2023-12-20T05:28:24;11.40;76.76
76104;HTU21D;64831;44.870;37.336;2023-12-20T05:30:51;11.38;76.78
76104;HTU21D;64831;44.870;37.336;2023-12-20T05:33:17;11.40;76.82
76104;HTU21D;64831;44.870;37.336;2023-12-20T05:35:43;11.41;76.91
76104;HTU21D;64831;44.870;37.336;2023-12-20T05:38:09;11.41;76.92
76104;HTU21D;64831;44.870;37.336;2023-12-20T05:40:35;11.41;77.02
76104;HTU21D;64831;44.870;37.336;2023-12-20T05:43:01;11.40;77.02
76104;HTU21D;64831;44.870;37.336;2023-12-20T05:45:27;11.40;77.07
76104;HTU21D;64831;44.870;37.336;2023-12-20T05:47:53;11.41;77.08
76104;HTU21D;64831;44.870;37.336;2023-12-20T05:50:20;11.41;77.07
76104;HTU21D;64831;44.870;37.336;2023-12-20T05:52:46;11.39;77.07
76104;HTU21D;64831;44.870;37.336;2023-12-20T05:55:12;11.40;77.18
76104;HTU21D;64831;44.870;37.336;2023-12-20T05:57:38;11.42;77.14
76104;HTU21D;64831;44.870;37.336;2023-12-20T06:00:05;11.40;77.06
76104;HTU21D;64831;44.870;37.336;2023-12-20T06:02:37;11.40;77.10
76104;HTU21D;64831;44.870;37.336;2023-12-20T06:05:07;11.39;77.13
76104;HTU21D;64831;44.870;37.336;2023-12-20T06:07:33;11.38;77.10
76104;HTU21D;64831;44.870;37.336;2023-12-20T06:09:59;11.39;76.94
76104;HTU21D;64831;44.870;37.336;2023-12-20T06:12:24;11.40;76.86
76104;HTU21D;64831;44.870;37.336;2023-12-20T06:14:52;11.42;76.79
76104;HTU21D;64831;44.870;37.336;2023-12-20T06:17:18;11.42;76.77
76104;HTU21D;64831;44.870;37.336;2023-12-20T06:19:45;11.42;76.76
76104;HTU21D;64831;44.870;37.336;2023-12-20T06:22:14;11.45;76.79
76104;HTU21D;64831;44.870;37.336;2023-12-20T06:24:40;11.45;76.70
76104;HTU21D;64831;44.870;37.336;2023-12-20T06:27:06;11.46;76.60
76104;HTU21D;64831;44.870;37.336;2023-12-20T06:29:32;11.47;76.37
76104;HTU21D;64831;44.870;37.336;2023-12-20T06:31:58;11.48;76.38
76104;HTU21D;64831;44.870;37.336;2023-12-20T06:34:24;11.49;76.53
76104;HTU21D;64831;44.870;37.336;2023-12-20T06:36:50;11.49;76.24
76104;HTU21D;64831;44.870;37.336;2023-12-20T06:39:16;11.52;76.18
76104;HTU21D;64831;44.870;37.336;2023-12-20T06:41:42;11.51;75.92
76104;HTU21D;64831;44.870;37.336;2023-12-20T06:44:08;11.54;75.77
76104;HTU21D;64831;44.870;37.336;2023-12-20T06:46:35;11.57;75.85
76104;HTU21D;64831;44.870;37.336;2023-12-20T06:49:01;11.60;75.77
76104;HTU21D;64831;44.870;37.336;2023-12-20T06:51:27;11.61;75.77
76104;HTU21D;64831;44.870;37.336;2023-12-20T06:53:54;11.60;75.57
76104;HTU21D;64831;44.870;37.336;2023-12-20T06:56:19;11.62;74.74
76104;HTU21D;64831;44.870;37.336;2023-12-20T06:58:46;11.64;74.68
76104;HTU21D;64831;44.870;37.336;2023-12-20T07:01:12;11.67;74.40
76104;HTU21D;64831;44.870;37.336;2023-12-20T07:03:38;11.70;74.53
76104;HTU21D;64831;44.870;37.336;2023-12-20T07:06:06;11.71;74.18
76104;HTU21D;64831;44.870;37.336;2023-12-20T07:08:32;11.89;75.09
76104;HTU21D;64831;44.870;37.336;2023-12-20T07:10:58;12.63;77.05
76104;HTU21D;64831;44.870;37.336;2023-12-20T07:13:24;13.47;74.81
76104;HTU21D;64831;44.870;37.336;2023-12-20T07:15:50;14.17;74.95
76104;HTU21D;64831;44.870;37.336;2023-12-20T07:18:16;14.86;71.91
76104;HTU21D;64831;44.870;37.336;2023-12-20T07:20:42;15.34;70.23
76104;HTU21D;64831;44.870;37.336;2023-12-20T07:23:08;15.56;67.73
76104;HTU21D;64831;44.870;37.336;2023-12-20T07:25:34;15.71;66.26
76104;HTU21D;64831;44.870;37.336;2023-12-20T07:28:00;15.37;64.93
76104;HTU21D;64831;44.870;37.336;2023-12-20T07:30:26;14.86;65.18
76104;HTU21D;64831;44.870;37.336;2023-12-20T07:32:52;14.51;65.90
76104;HTU21D;64831;44.870;37.336;2023-12-20T07:35:18;14.15;66.04
76104;HTU21D;64831;44.870;37.336;2023-12-20T07:37:44;13.78;66.58
76104;HTU21D;64831;44.870;37.336;2023-12-20T07:40:10;13.49;67.40
76104;HTU21D;64831;44.870;37.336;2023-12-20T07:42:36;13.48;69.35
76104;HTU21D;64831;44.870;37.336;2023-12-20T07:45:03;13.77;69.81
76104;HTU21D;64831;44.870;37.336;2023-12-20T07:47:29;14.20;69.54
76104;HTU21D;64831;44.870;37.336;2023-12-20T07:49:55;14.30;67.60
76104;HTU21D;64831;44.870;37.336;2023-12-20T07:52:22;14.10;66.85
76104;HTU21D;64831;44.870;37.336;2023-12-20T07:54:49;13.92;67.38
76104;HTU21D;64831;44.870;37.336;2023-12-20T07:57:14;13.65;67.01
76104;HTU21D;64831;44.870;37.336;2023-12-20T07:59:40;13.54;67.74
76104;HTU21D;64831;44.870;37.336;2023-12-20T08:02:06;13.35;67.94
76104;HTU21D;64831;44.870;37.336;2023-12-20T08:04:32;13.20;67.70
76104;HTU21D;64831;44.870;37.336;2023-12-20T08:06:58;13.05;68.62
76104;HTU21D;64831;44.870;37.336;2023-12-20T08:09:26;13.11;69.42
76104;HTU21D;64831;44.870;37.336;2023-12-20T08:11:52;13.29;69.60
76104;HTU21D;64831;44.870;37.336;2023-12-20T08:14:17;13.45;69.93
76104;HTU21D;64831;44.870;37.336;2023-12-20T08:16:44;13.71;70.08
76104;HTU21D;64831;44.870;37.336;2023-12-20T08:19:10;13.84;68.53
76104;HTU21D;64831;44.870;37.336;2023-12-20T08:21:36;13.78;67.65
76104;HTU21D;64831;44.870;37.336;2023-12-20T08:24:01;13.94;68.97
76104;HTU21D;64831;44.870;37.336;2023-12-20T08:26:28;14.01;67.81
76104;HTU21D;64831;44.870;37.336;2023-12-20T08:28:54;13.90;67.68
76104;HTU21D;64831;44.870;37.336;2023-12-20T08:31:20;13.86;68.03
76104;HTU21D;64831;44.870;37.336;2023-12-20T08:33:48;13.88;68.10
76104;HTU21D;64831;44.870;37.336;2023-12-20T08:36:14;13.79;67.82
76104;HTU21D;64831;44.870;37.336;2023-12-20T08:38:40;13.82;68.49
76104;HTU21D;64831;44.870;37.336;2023-12-20T08:41:06;13.93;67.73
76104;HTU21D;64831;44.870;37.336;2023-12-20T08:43:34;13.85;67.52
76104;HTU21D;64831;44.870;37.336;2023-12-20T08:46:00;13.95;67.88
76104;HTU21D;64831;44.870;37.336;2023-12-20T08:48:27;14.08;67.59
76104;HTU21D;64831;44.870;37.336;2023-12-20T08:50:53;14.15;66.93
76104;HTU21D;64831;44.870;37.336;2023-12-20T08:53:19;14.11;66.60
76104;HTU21D;64831;44.870;37.336;2023-12-20T08:55:46;13.97;66.40
76104;HTU21D;64831;44.870;37.336;2023-12-20T08:58:12;13.74;66.69
76104;HTU21D;64831;44.870;37.336;2023-12-20T09:00:38;13.73;67.65
76104;HTU21D;64831;44.870;37.336;2023-12-20T09:03:04;13.84;67.78
76104;HTU21D;64831;44.870;37.336;2023-12-20T09:05:30;13.97;67.34
76104;HTU21D;64831;44.870;37.336;2023-12-20T09:07:56;13.96;66.61
76104;HTU21D;64831;44.870;37.336;2023-12-20T09:10:22;13.88;66.60
76104;HTU21D;64831;44.870;37.336;2023-12-20T09:12:50;13.83;67.17
76104;HTU21D;64831;44.870;37.336;2023-12-20T09:15:16;13.85;67.18
76104;HTU21D;64831;44.870;37.336;2023-12-20T09:17:42;13.91;66.78
76104;HTU21D;64831;44.870;37.336;2023-12-20T09:20:09;13.89;66.72
76104;HTU21D;64831;44.870;37.336;2023-12-20T09:22:36;13.83;66.68
76104;HTU21D;64831;44.870;37.336;2023-12-20T09:25:04;13.67;66.65
76104;HTU21D;64831;44.870;37.336;2023-12-20T09:27:30;13.59;67.36
76104;HTU21D;64831;44.870;37.336;2023-12-20T09:29:56;13.67;67.80
76104;HTU21D;64831;44.870;37.336;2023-12-20T09:32:22;13.76;67.30
76104;HTU21D;64831;44.870;37.336;2023-12-20T09:34:48;13.85;67.20
76104;HTU21D;64831;44.870;37.336;2023-12-20T09:37:14;13.86;66.50
76104;HTU21D;64831;44.870;37.336;2023-12-20T09:39:40;13.80;66.56
76104;HTU21D;64831;44.870;37.336;2023-12-20T09:42:07;13.79;66.75
76104;HTU21D;64831;44.870;37.336;2023-12-20T09:44:33;13.83;66.81
76104;HTU21D;64831;44.870;37.336;2023-12-20T09:47:03;13.79;66.27
76104;HTU21D;64831;44.870;37.336;2023-12-20T09:49:30;13.74;66.44
76104;HTU21D;64831;44.870;37.336;2023-12-20T09:51:56;13.73;66.58
76104;HTU21D;64831;44.870;37.336;2023-12-20T09:54:23;13.61;66.45
76104;HTU21D;64831;44.870;37.336;2023-12-20T09:56:49;13.47;66.40
76104;HTU21D;64831;44.870;37.336;2023-12-20T09:59:16;13.49;66.99
76104;HTU21D;64831;44.870;37.336;2023-12-20T10:01:42;13.52;66.89
76104;HTU21D;64831;44.870;37.336;2023-12-20T10:04:10;13.58;66.88
76104;HTU21D;64831;44.870;37.336;2023-12-20T10:06:42;13.54;66.55
76104;HTU21D;64831;44.870;37.336;2023-12-20T10:09:09;13.60;66.75
76104;HTU21D;64831;44.870;37.336;2023-12-20T10:11:39;13.58;66.31
76104;HTU21D;64831;44.870;37.336;2023-12-20T10:14:05;13.53;66.36
76104;HTU21D;64831;44.870;37.336;2023-12-20T10:16:32;13.53;66.78
76104;HTU21D;64831;44.870;37.336;2023-12-20T10:18:59;13.46;66.56
76104;HTU21D;64831;44.870;37.336;2023-12-20T10:21:26;13.38;67.01
76104;HTU21D;64831;44.870;37.336;2023-12-20T10:23:54;13.33;67.18
76104;HTU21D;64831;44.870;37.336;2023-12-20T10:26:26;13.35;67.29
76104;HTU21D;64831;44.870;37.336;2023-12-20T10:29:00;13.30;67.26
76104;HTU21D;64831;44.870;37.336;2023-12-20T10:33:53;13.33;67.34
76104;HTU21D;64831;44.870;37.336;2023-12-20T10:36:19;13.27;67.43
76104;HTU21D;64831;44.870;37.336;2023-12-20T10:38:46;13.26;67.46
76104;HTU21D;64831;44.870;37.336;2023-12-20T10:41:14;13.23;67.40
76104;HTU21D;64831;44.870;37.336;2023-12-20T10:43:43;13.23;67.67
76104;HTU21D;64831;44.870;37.336;2023-12-20T10:46:09;13.25;67.63
76104;HTU21D;64831;44.870;37.336;2023-12-20T10:48:36;13.32;67.94
76104;HTU21D;64831;44.870;37.336;2023-12-20T10:51:04;13.39;67.81
76104;HTU21D;64831;44.870;37.336;2023-12-20T10:53:30;13.39;67.74
76104;HTU21D;64831;44.870;37.336;2023-12-20T10:56:00;13.40;67.89
76104;HTU21D;64831;44.870;37.336;2023-12-20T10:58:29;13.40;67.61
76104;HTU21D;64831;44.870;37.336;2023-12-20T11:01:00;13.38;67.48
76104;HTU21D;64831;44.870;37.336;2023-12-20T11:03:28;13.38;67.59
76104;HTU21D;64831;44.870;37.336;2023-12-20T11:17:11;12.85;67.93
76104;HTU21D;64831;44.870;37.336;2023-12-20T11:22:30;12.76;68.35
76104;HTU21D;64831;44.870;37.336;2023-12-20T11:25:14;12.70;68.62
76104;HTU21D;64831;44.870;37.336;2023-12-20T11:27:41;12.67;68.86
76104;HTU21D;64831;44.870;37.336;2023-12-20T11:30:09;12.65;68.88
76104;HTU21D;64831;44.870;37.336;2023-12-20T11:32:36;12.61;69.14
76104;HTU21D;64831;44.870;37.336;2023-12-20T11:37:38;12.55;69.23
76104;HTU21D;64831;44.870;37.336;2023-12-20T11:40:11;12.55;69.32
76104;HTU21D;64831;44.870;37.336;2023-12-20T11:42:41;12.52;69.68
76104;HTU21D;64831;44.870;37.336;2023-12-20T11:45:14;12.50;69.70
76104;HTU21D;64831;44.870;37.336;2023-12-20T11:47:43;12.56;69.70
76104;HTU21D;64831;44.870;37.336;2023-12-20T11:50:10;12.55;69.68
76104;HTU21D;64831;44.870;37.336;2023-12-20T11:52:36;12.53;69.46
76104;HTU21D;64831;44.870;37.336;2023-12-20T11:55:03;12.49;69.38
76104;HTU21D;64831;44.870;37.336;2023-12-20T11:57:30;12.46;69.64
76104;HTU21D;64831;44.870;37.336;2023-12-20T11:59:56;12.45;69.84
76104;HTU21D;64831;44.870;37.336;2023-12-20T12:02:22;12.44;69.91
76104;HTU21D;64831;44.870;37.336;2023-12-20T12:04:49;12.42;69.82
76104;HTU21D;64831;44.870;37.336;2023-12-20T12:07:19;12.37;69.74
76104;HTU21D;64831;44.870;37.336;2023-12-20T12:09:45;12.35;69.84
76104;HTU21D;64831;44.870;37.336;2023-12-20T12:12:12;12.33;69.92
76104;HTU21D;64831;44.870;37.336;2023-12-20T12:14:39;12.27;70.13
76104;HTU21D;64831;44.870;37.336;2023-12-20T12:17:15;12.27;70.23
76104;HTU21D;64831;44.870;37.336;2023-12-20T12:19:42;12.25;70.32
76104;HTU21D;64831;44.870;37.336;2023-12-20T12:22:15;12.20;70.59
76104;HTU21D;64831;44.870;37.336;2023-12-20T12:24:46;12.22;70.55
76104;HTU21D;64831;44.870;37.336;2023-12-20T12:27:13;12.19;70.60
76104;HTU21D;64831;44.870;37.336;2023-12-20T12:29:40;12.17;70.57
76104;HTU21D;64831;44.870;37.336;2023-12-20T12:32:09;12.17;70.42
76104;HTU21D;64831;44.870;37.336;2023-12-20T12:34:36;12.17;70.34
76104;HTU21D;64831;44.870;37.336;2023-12-20T12:37:04;12.17;70.39
76104;HTU21D;64831;44.870;37.336;2023-12-20T12:39:30;12.18;70.57
76104;HTU21D;64831;44.870;37.336;2023-12-20T12:41:56;12.19;70.79
76104;HTU21D;64831;44.870;37.336;2023-12-20T12:44:23;12.20;70.93
76104;HTU21D;64831;44.870;37.336;2023-12-20T12:46:52;12.19;70.87
76104;HTU21D;64831;44.870;37.336;2023-12-20T12:49:22;12.19;70.74
76104;HTU21D;64831;44.870;37.336;2023-12-20T12:51:48;12.19;70.73
76104;HTU21D;64831;44.870;37.336;2023-12-20T12:54:14;12.18;70.68
76104;HTU21D;64831;44.870;37.336;2023-12-20T12:56:42;12.15;70.88
76104;HTU21D;64831;44.870;37.336;2023-12-20T12:59:09;12.11;70.96
76104;HTU21D;64831;44.870;37.336;2023-12-20T13:01:35;12.10;71.00
76104;HTU21D;64831;44.870;37.336;2023-12-20T13:04:01;12.08;71.02
76104;HTU21D;64831;44.870;37.336;2023-12-20T13:06:33;12.05;71.06
76104;HTU21D;64831;44.870;37.336;2023-12-20T13:08:59;12.01;71.25
76104;HTU21D;64831;44.870;37.336;2023-12-20T13:11:24;11.99;71.17
76104;HTU21D;64831;44.870;37.336;2023-12-20T13:13:51;11.98;71.29
76104;HTU21D;64831;44.870;37.336;2023-12-20T13:16:17;12.00;71.42
76104;HTU21D;64831;44.870;37.336;2023-12-20T13:18:43;11.99;71.50
76104;HTU21D;64831;44.870;37.336;2023-12-20T13:21:09;11.99;71.51
76104;HTU21D;64831;44.870;37.336;2023-12-20T13:23:35;11.97;71.81
76104;HTU21D;64831;44.870;37.336;2023-12-20T13:26:02;11.97;71.90
76104;HTU21D;64831;44.870;37.336;2023-12-20T13:28:28;11.96;71.86
76104;HTU21D;64831;44.870;37.336;2023-12-20T13:30:54;11.97;71.92
76104;HTU21D;64831;44.870;37.336;2023-12-20T13:33:20;11.94;72.13
76104;HTU21D;64831;44.870;37.336;2023-12-20T13:35:47;11.93;71.91
76104;HTU21D;64831;44.870;37.336;2023-12-20T13:38:13;11.89;72.03
76104;HTU21D;64831;44.870;37.336;2023-12-20T13:40:39;11.85;72.01
76104;HTU21D;64831;44.870;37.336;2023-12-20T13:43:05;11.82;72.05
76104;HTU21D;64831;44.870;37.336;2023-12-20T13:45:31;11.77;72.13
76104;HTU21D;64831;44.870;37.336;2023-12-20T13:47:58;11.76;72.26
76104;HTU21D;64831;44.870;37.336;2023-12-20T13:50:24;11.74;72.50
76104;HTU21D;64831;44.870;37.336;2023-12-20T13:52:51;11.73;72.59
76104;HTU21D;64831;44.870;37.336;2023-12-20T13:55:17;11.72;72.53
76104;HTU21D;64831;44.870;37.336;2023-12-20T13:57:46;11.68;72.72
76104;HTU21D;64831;44.870;37.336;2023-12-20T14:00:14;11.63;73.04
76104;HTU21D;64831;44.870;37.336;2023-12-20T14:02:41;11.60;73.09
76104;HTU21D;64831;44.870;37.336;2023-12-20T14:05:10;11.56;73.31
76104;HTU21D;64831;44.870;37.336;2023-12-20T14:07:36;11.56;73.25
76104;HTU21D;64831;44.870;37.336;2023-12-20T14:10:03;11.54;73.18
76104;HTU21D;64831;44.870;37.336;2023-12-20T14:12:29;11.52;73.22
76104;HTU21D;64831;44.870;37.336;2023-12-20T14:14:55;11.51;73.32
76104;HTU21D;64831;44.870;37.336;2023-12-20T14:17:22;11.49;73.32
76104;HTU21D;64831;44.870;37.336;2023-12-20T14:19:48;11.46;73.40
76104;HTU21D;64831;44.870;37.336;2023-12-20T14:22:13;11.46;73.24
76104;HTU21D;64831;44.870;37.336;2023-12-20T14:24:42;11.44;73.24
76104;HTU21D;64831;44.870;37.336;2023-12-20T14:27:09;11.43;73.27
76104;HTU21D;64831;44.870;37.336;2023-12-20T14:29:35;11.39;73.26
76104;HTU21D;64831;44.870;37.336;2023-12-20T14:32:01;11.39;73.13
76104;HTU21D;64831;44.870;37.336;2023-12-20T14:34:29;11.39;72.94
76104;HTU21D;64831;44.870;37.336;2023-12-20T14:36:55;11.38;72.75
76104;HTU21D;64831;44.870;37.336;2023-12-20T14:39:21;11.36;72.49
76104;HTU21D;64831;44.870;37.336;2023-12-20T14:41:48;11.36;72.48
76104;HTU21D;64831;44.870;37.336;2023-12-20T14:44:14;11.36;72.41
76104;HTU21D;64831;44.870;37.336;2023-12-20T14:46:40;11.34;72.24
76104;HTU21D;64831;44.870;37.336;2023-12-20T14:49:06;11.34;72.16
76104;HTU21D;64831;44.870;37.336;2023-12-20T14:51:33;11.33;72.06
76104;HTU21D;64831;44.870;37.336;2023-12-20T14:54:00;11.34;72.03
76104;HTU21D;64831;44.870;37.336;2023-12-20T14:56:26;11.33;72.01
76104;HTU21D;64831;44.870;37.336;2023-12-20T14:58:53;11.33;72.07
76104;HTU21D;64831;44.870;37.336;2023-12-20T15:01:19;11.32;72.03
76104;HTU21D;64831;44.870;37.336;2023-12-20T15:03:49;11.33;72.05
76104;HTU21D;64831;44.870;37.336;2023-12-20T15:06:15;11.30;71.97
76104;HTU21D;64831;44.870;37.336;2023-12-20T15:08:41;11.31;71.98
76104;HTU21D;64831;44.870;37.336;2023-12-20T15:11:07;11.30;71.97
76104;HTU21D;64831;44.870;37.336;2023-12-20T15:13:33;11.30;71.92
76104;HTU21D;64831;44.870;37.336;2023-12-20T15:15:59;11.30;71.82
76104;HTU21D;64831;44.870;37.336;2023-12-20T15:18:25;11.30;71.71